createdAt,value
2023-05-06T00:02:21.843Z,47.33
2023-05-06T00:07:26.021Z,47.58
2023-05-06T00:12:28.762Z,47.67
2023-05-06T00:17:31.548Z,48.11
2023-05-06T00:22:35.692Z,48.27
2023-05-06T00:27:38.798Z,48.47
2023-05-06T00:32:41.654Z,48.44
2023-05-06T00:37:46.439Z,48.68
2023-05-06T00:42:49.181Z,48.71
2023-05-06T00:47:52.330Z,48.76
2023-05-06T00:52:56.592Z,48.86
2023-05-06T00:57:59.511Z,48.93
2023-05-06T01:03:02.413Z,49.23
2023-05-06T01:08:11.142Z,49.38
2023-05-06T01:13:18.380Z,49.53
2023-05-06T01:18:22.572Z,49.43
2023-05-06T01:23:26.684Z,49.69
2023-05-06T01:28:29.470Z,49.60
2023-05-06T01:33:35.961Z,49.66
2023-05-06T01:38:44.104Z,49.90
2023-05-06T01:43:48.678Z,50.20
2023-05-06T01:48:53.734Z,50.07
2023-05-06T01:53:57.835Z,50.52
2023-05-06T01:59:00.925Z,50.72
2023-05-06T02:04:04.111Z,50.72
2023-05-06T02:09:08.362Z,50.72
2023-05-06T02:14:16.464Z,50.90
2023-05-06T02:19:19.318Z,50.96
2023-05-06T02:24:23.453Z,51.06
2023-05-06T02:29:26.352Z,51.23
2023-05-06T02:34:29.126Z,51.37
2023-05-06T02:39:33.264Z,51.54
2023-05-06T02:44:36.603Z,51.74
2023-05-06T02:49:39.377Z,51.74
2023-05-06T02:54:43.548Z,52.00
2023-05-06T02:59:46.481Z,51.97
2023-05-06T03:04:49.297Z,51.99
2023-05-06T03:09:53.496Z,52.25
2023-05-06T03:14:56.979Z,52.58
2023-05-06T03:19:59.815Z,52.92
2023-05-06T03:25:05.080Z,52.78
2023-05-06T03:30:11.255Z,52.83
2023-05-06T03:35:14.697Z,52.98
2023-05-06T03:40:21.640Z,53.26
2023-05-06T03:45:25.099Z,53.26
2023-05-06T03:50:28.145Z,53.56
2023-05-06T03:55:32.316Z,53.74
2023-05-06T04:00:36.760Z,53.73
2023-05-06T04:05:39.647Z,53.85
2023-05-06T04:10:45.152Z,53.96
2023-05-06T04:15:54.577Z,53.93
2023-05-06T04:21:02.133Z,54.00
2023-05-06T04:26:08.801Z,53.94
2023-05-06T04:31:15.480Z,53.81
2023-05-06T04:36:24.797Z,53.96
2023-05-06T04:41:51.817Z,54.04
2023-05-06T04:47:02.227Z,54.12
2023-05-06T04:52:05.670Z,54.16
2023-05-06T04:57:11.299Z,54.26
2023-05-06T05:02:15.690Z,54.32
2023-05-06T05:07:19.540Z,54.33
2023-05-06T05:12:23.772Z,54.10
2023-05-06T05:17:28.593Z,54.08
2023-05-06T05:22:32.817Z,53.94
2023-05-06T05:27:37.726Z,54.27
2023-05-06T05:32:40.638Z,53.89
2023-05-06T05:37:43.593Z,53.98
2023-05-06T05:42:48.312Z,53.66
2023-05-06T05:48:00.768Z,53.32
2023-05-06T05:53:03.631Z,53.01
2023-05-06T05:58:08.304Z,52.74
2023-05-06T06:03:11.595Z,52.42
2023-05-06T06:08:14.760Z,52.67
2023-05-06T06:13:19.257Z,52.76
2023-05-06T06:18:22.176Z,53.25
2023-05-06T06:23:25.402Z,53.12
2023-05-06T06:28:29.733Z,53.24
2023-05-06T06:33:32.589Z,53.17
2023-05-06T06:38:35.737Z,52.31
2023-05-06T06:43:40.162Z,52.36
2023-05-06T06:48:52.379Z,52.42
2023-05-06T06:53:55.211Z,52.39
2023-05-06T06:58:59.443Z,52.19
2023-05-06T07:04:02.708Z,52.28
2023-05-06T07:09:06.409Z,52.39
2023-05-06T07:14:10.527Z,52.23
2023-05-06T07:19:13.314Z,52.18
2023-05-06T07:24:16.156Z,49.45
2023-05-06T07:29:20.551Z,52.01
2023-05-06T07:34:23.403Z,52.82
2023-05-06T07:39:26.302Z,54.00
2023-05-06T07:44:30.425Z,55.43
2023-05-06T07:49:34.945Z,55.25
2023-05-06T07:54:37.804Z,56.46
2023-05-06T07:59:42.191Z,56.38
2023-05-06T08:04:45.407Z,58.94
2023-05-06T08:09:48.341Z,56.21
2023-05-06T08:14:52.594Z,55.09
2023-05-06T08:19:55.455Z,54.30
2023-05-06T08:24:58.725Z,53.75
2023-05-06T08:30:03.087Z,53.41
2023-05-06T08:35:06.757Z,52.74
2023-05-06T08:40:11.158Z,52.21
2023-05-06T08:45:15.821Z,51.88
2023-05-06T08:50:18.571Z,51.35
2023-05-06T08:55:21.739Z,51.50
2023-05-06T09:00:26.218Z,51.27
2023-05-06T09:05:29.651Z,50.98
2023-05-06T09:10:33.319Z,50.98
2023-05-06T09:15:43.846Z,50.40
2023-05-06T09:20:47.372Z,50.30
2023-05-06T09:25:51.146Z,50.29
2023-05-06T09:30:55.601Z,50.06
2023-05-06T09:35:58.557Z,49.85
2023-05-06T09:41:01.565Z,50.01
2023-05-06T09:46:06.092Z,49.94
2023-05-06T09:51:09.054Z,49.83
2023-05-06T09:56:12.085Z,50.14
2023-05-06T10:01:25.090Z,50.04
2023-05-06T10:06:32.004Z,50.12
2023-05-06T10:11:34.792Z,50.07
2023-05-06T10:16:40.524Z,49.79
2023-05-06T10:21:44.683Z,49.72
2023-05-06T10:26:47.951Z,49.80
2023-05-06T10:31:54.384Z,49.78
2023-05-06T10:36:57.780Z,49.60
2023-05-06T10:42:01.859Z,49.54
2023-05-06T10:47:06.129Z,49.28
2023-05-06T10:52:13.224Z,49.51
2023-05-06T10:57:16.126Z,49.89
2023-05-06T11:02:21.340Z,49.45
2023-05-06T11:07:24.662Z,49.08
2023-05-06T11:12:49.961Z,49.01
2023-05-06T11:17:55.357Z,48.54
2023-05-06T11:22:58.168Z,48.56
2023-05-06T11:28:01.447Z,47.99
2023-05-06T11:33:06.100Z,47.33
2023-05-06T11:38:09.009Z,46.95
2023-05-06T11:43:12.837Z,46.54
2023-05-06T11:48:17.626Z,46.22
2023-05-06T11:53:21.148Z,46.29
2023-05-06T11:58:25.645Z,46.36
2023-05-06T12:03:31.329Z,46.13
2023-05-06T12:08:34.937Z,46.00
2023-05-06T12:13:37.884Z,46.23
2023-05-06T12:18:42.047Z,46.60
2023-05-06T12:23:52.269Z,46.82
2023-05-06T12:29:08.662Z,47.08
2023-05-06T12:34:12.838Z,46.95
2023-05-06T12:39:17.603Z,47.41
2023-05-06T12:44:36.905Z,47.61
2023-05-06T12:49:48.618Z,48.12
2023-05-06T12:54:53.079Z,48.38
2023-05-06T12:59:56.329Z,48.48
2023-05-06T13:05:01.863Z,48.61
2023-05-06T13:10:06.203Z,48.73
2023-05-06T13:15:10.560Z,49.50
2023-05-06T13:20:14.967Z,50.29
2023-05-06T13:25:17.796Z,51.22
2023-05-06T13:30:20.776Z,51.01
2023-05-06T13:35:24.966Z,50.19
2023-05-06T13:40:27.762Z,49.61
2023-05-06T13:45:30.656Z,48.92
2023-05-06T13:50:36.030Z,49.52
2023-05-06T13:55:39.314Z,48.99
2023-05-06T14:00:42.184Z,49.07
2023-05-06T14:05:46.340Z,48.63
2023-05-06T14:10:49.732Z,48.58
2023-05-06T14:15:52.783Z,48.47
2023-05-06T14:20:57.280Z,48.33
2023-05-06T14:26:00.129Z,48.26
2023-05-06T14:31:03.113Z,48.22
2023-05-06T14:36:08.217Z,48.25
2023-05-06T14:41:11.447Z,48.20
2023-05-06T14:46:15.929Z,48.03
2023-05-06T14:51:20.488Z,47.77
2023-05-06T14:56:23.358Z,47.55
2023-05-06T15:01:26.338Z,47.39
2023-05-06T15:06:30.532Z,46.31
2023-05-06T15:11:33.488Z,46.21
2023-05-06T15:16:36.597Z,45.53
2023-05-06T15:21:40.782Z,45.68
2023-05-06T15:26:43.776Z,45.65
2023-05-06T15:31:46.771Z,45.13
2023-05-06T15:36:52.965Z,45.09
2023-05-06T15:41:55.893Z,45.10
2023-05-06T15:46:58.665Z,45.67
2023-05-06T15:52:02.881Z,45.74
2023-05-06T15:57:07.145Z,45.75
2023-05-06T16:07:17.531Z,42.69
2023-05-06T16:12:20.391Z,40.38
2023-05-06T16:17:23.243Z,38.81
2023-05-06T16:22:27.434Z,38.05
2023-05-06T16:27:30.388Z,37.48
2023-05-06T16:32:33.461Z,37.87
2023-05-06T16:37:37.893Z,37.72
2023-05-06T16:42:40.785Z,38.37
2023-05-06T16:47:44.348Z,38.33
2023-05-06T16:52:48.641Z,38.08
2023-05-06T16:57:51.569Z,38.51
2023-05-06T17:02:54.422Z,38.14
2023-05-06T17:07:59.271Z,37.51
2023-05-06T17:13:02.417Z,37.50
2023-05-06T17:18:05.454Z,37.63
2023-05-06T17:23:09.652Z,37.53
2023-05-06T17:28:12.563Z,37.76
2023-05-06T17:33:16.054Z,38.99
2023-05-06T17:38:20.446Z,39.62
2023-05-06T17:43:23.283Z,40.24
2023-05-06T17:48:26.043Z,40.64
2023-05-06T17:53:32.333Z,40.75
2023-05-06T17:58:35.179Z,41.17
2023-05-06T18:03:38.193Z,41.49
2023-05-06T18:08:44.361Z,41.36
2023-05-06T18:13:47.149Z,41.52
2023-05-06T18:18:49.951Z,41.75
2023-05-06T18:24:01.910Z,42.00
2023-05-06T18:29:08.689Z,41.93
2023-05-06T18:34:11.521Z,42.26
2023-05-06T18:39:15.674Z,42.17
2023-05-06T18:44:18.579Z,42.51
2023-05-06T18:49:23.156Z,42.76
2023-05-06T18:54:27.361Z,42.97
2023-05-06T18:59:30.148Z,43.18
2023-05-06T19:04:33.491Z,43.45
2023-05-06T19:09:38.419Z,43.66
2023-05-06T19:14:43.813Z,43.99
2023-05-06T19:19:48.596Z,43.79
2023-05-06T19:24:52.772Z,43.92
2023-05-06T19:29:55.698Z,43.78
2023-05-06T19:34:59.042Z,44.04
2023-05-06T19:40:04.097Z,43.92
2023-05-06T19:45:11.002Z,44.13
2023-05-06T19:50:14.056Z,44.07
2023-05-06T19:55:18.532Z,44.21
2023-05-06T20:00:32.959Z,44.24
2023-05-06T20:05:35.869Z,44.18
2023-05-06T20:10:40.166Z,44.26
2023-05-06T20:15:43.286Z,44.23
2023-05-06T20:20:47.160Z,44.37
2023-05-06T20:25:51.355Z,44.42
2023-05-06T20:30:55.469Z,44.37
2023-05-06T20:35:58.236Z,44.33
2023-05-06T20:41:02.863Z,44.65
2023-05-06T20:46:06.622Z,44.99
2023-05-06T20:51:09.530Z,44.86
2023-05-06T20:56:20.206Z,45.06
2023-05-06T21:01:24.201Z,45.31
2023-05-06T21:06:27.004Z,45.11
2023-05-06T21:11:31.080Z,45.25
2023-05-06T21:16:33.936Z,45.36
2023-05-06T21:21:36.780Z,45.43
2023-05-06T21:26:41.098Z,45.42
2023-05-06T21:31:43.979Z,45.50
2023-05-06T21:36:46.809Z,45.48
2023-05-06T21:41:50.907Z,45.60
2023-05-06T21:46:53.851Z,45.57
2023-05-06T21:51:56.644Z,45.71
2023-05-06T21:57:00.837Z,45.66
2023-05-06T22:02:03.859Z,45.60
2023-05-06T22:07:06.764Z,45.64
2023-05-06T22:12:12.548Z,45.71
2023-05-06T22:17:15.648Z,45.86
2023-05-06T22:22:18.488Z,45.80
2023-05-06T22:27:22.631Z,46.07
2023-05-06T22:32:25.496Z,45.98
2023-05-06T22:37:28.310Z,46.20
2023-05-06T22:42:32.526Z,46.30
2023-05-06T22:47:35.324Z,46.25
2023-05-06T22:52:38.921Z,46.56
2023-05-06T22:57:43.088Z,46.37
2023-05-06T23:02:46.122Z,46.50
2023-05-06T23:07:48.946Z,46.74
2023-05-06T23:12:53.292Z,46.73
2023-05-06T23:17:56.089Z,46.75
2023-05-06T23:22:59.218Z,46.96
2023-05-06T23:28:03.461Z,46.81
2023-05-06T23:33:06.914Z,47.10
2023-05-06T23:38:09.728Z,47.05
2023-05-06T23:43:13.847Z,46.97
2023-05-06T23:48:16.617Z,47.08
2023-05-06T23:53:19.400Z,47.14
2023-05-06T23:58:23.560Z,47.19
